createdAt,value
2019-01-09T00:01:26.439Z,13.67
2019-01-09T00:03:55.739Z,12.57
2019-01-09T00:06:25.047Z,14.00
2019-01-09T00:08:57.903Z,10.80
2019-01-09T00:11:27.266Z,13.07
2019-01-09T00:13:56.555Z,9.83
2019-01-09T00:16:25.851Z,13.83
2019-01-09T00:18:55.188Z,10.67
2019-01-09T00:21:24.491Z,10.20
2019-01-09T00:23:53.839Z,9.77
2019-01-09T00:26:23.231Z,12.33
2019-01-09T00:28:52.685Z,11.93
2019-01-09T00:31:22.094Z,15.70
2019-01-09T00:33:51.389Z,13.50
2019-01-09T00:36:20.651Z,10.97
2019-01-09T00:38:49.939Z,8.73
2019-01-09T00:41:19.119Z,9.80
2019-01-09T00:43:48.542Z,9.50
2019-01-09T00:46:17.790Z,8.33
2019-01-09T00:48:47.142Z,6.37
2019-01-09T00:51:16.598Z,9.40
2019-01-09T00:53:45.928Z,8.80
2019-01-09T00:56:15.190Z,10.30
2019-01-09T00:58:44.518Z,10.30
2019-01-09T01:01:13.970Z,9.07
2019-01-09T01:04:19.922Z,6.87
2019-01-09T01:07:26.546Z,10.80
2019-01-09T01:10:31.910Z,8.93
2019-01-09T01:13:37.222Z,12.80
2019-01-09T01:16:46.520Z,12.30
2019-01-09T01:19:52.521Z,11.60
2019-01-09T01:23:11.878Z,12.10
2019-01-09T01:26:16.202Z,12.53
2019-01-09T01:29:36.473Z,10.10
2019-01-09T01:32:41.704Z,10.90
2019-01-09T01:35:40.125Z,9.80
2019-01-09T01:39:08.973Z,8.80
2019-01-09T01:42:01.437Z,9.50
2019-01-09T01:44:54.291Z,10.13
2019-01-09T01:47:57.885Z,6.63
2019-01-09T01:51:11.169Z,6.13
2019-01-09T01:54:06.878Z,6.30
2019-01-09T01:57:12.465Z,6.13
2019-01-09T02:00:04.865Z,9.00
2019-01-09T02:03:09.941Z,7.03
2019-01-09T02:06:04.337Z,12.33
2019-01-09T02:09:01.829Z,6.63
2019-01-09T02:12:20.409Z,9.83
2019-01-09T02:15:26.583Z,6.00
2019-01-09T02:18:16.781Z,7.43
2019-01-09T02:21:28.820Z,7.40
2019-01-09T02:24:32.041Z,8.73
2019-01-09T02:27:41.805Z,10.47
2019-01-09T02:30:53.493Z,9.33
2019-01-09T02:33:22.820Z,9.87
2019-01-09T02:35:52.229Z,8.40
2019-01-09T02:38:21.599Z,7.97
2019-01-09T02:40:52.006Z,10.97
2019-01-09T02:43:21.833Z,7.60
2019-01-09T02:45:51.181Z,10.20
2019-01-09T02:48:20.517Z,6.20
2019-01-09T02:50:49.884Z,12.50
2019-01-09T02:53:19.124Z,11.73
2019-01-09T02:55:48.410Z,11.93
2019-01-09T02:58:17.857Z,9.97
2019-01-09T03:00:47.213Z,11.50
2019-01-09T03:03:16.476Z,8.90
2019-01-09T03:05:45.831Z,11.83
2019-01-09T03:08:15.272Z,11.63
2019-01-09T03:10:44.568Z,20.47
2019-01-09T03:13:13.864Z,68.33
2019-01-09T03:15:43.182Z,31.60
2019-01-09T03:18:12.433Z,24.10
2019-01-09T03:20:41.807Z,10.30
2019-01-09T03:23:11.045Z,11.50
2019-01-09T03:25:40.364Z,10.07
2019-01-09T03:28:09.688Z,15.80
2019-01-09T03:30:39.049Z,9.77
2019-01-09T03:33:08.281Z,8.53
2019-01-09T03:35:37.541Z,8.30
2019-01-09T03:38:06.853Z,9.13
2019-01-09T03:40:36.099Z,4.87
2019-01-09T03:43:05.410Z,9.37
2019-01-09T03:45:34.747Z,8.63
2019-01-09T03:48:04.127Z,8.00
2019-01-09T03:50:33.648Z,9.73
2019-01-09T03:53:03.903Z,12.23
2019-01-09T03:55:33.271Z,12.03
2019-01-09T03:58:02.575Z,14.57
2019-01-09T04:00:31.823Z,13.90
2019-01-09T04:03:01.140Z,13.53
2019-01-09T04:05:30.395Z,17.43
2019-01-09T04:07:59.715Z,19.37
2019-01-09T04:10:29.092Z,18.67
2019-01-09T04:12:58.347Z,17.40
2019-01-09T04:15:27.631Z,16.17
2019-01-09T04:17:56.944Z,20.27
2019-01-09T04:20:26.239Z,20.10
2019-01-09T04:22:55.566Z,24.20
2019-01-09T04:25:24.866Z,20.77
2019-01-09T04:27:54.147Z,28.60
2019-01-09T04:30:23.631Z,23.57
2019-01-09T04:32:52.930Z,24.50
2019-01-09T04:35:22.388Z,28.47
2019-01-09T04:37:51.651Z,21.40
2019-01-09T04:40:21.003Z,24.73
2019-01-09T04:42:50.254Z,24.93
2019-01-09T04:45:19.460Z,19.67
2019-01-09T04:47:48.850Z,19.90
2019-01-09T04:50:18.165Z,22.33
2019-01-09T04:52:47.474Z,18.00
2019-01-09T04:55:17.186Z,18.60
2019-01-09T04:57:46.466Z,17.13
2019-01-09T05:00:15.754Z,16.37
2019-01-09T05:02:45.055Z,15.37
2019-01-09T05:05:14.330Z,16.00
2019-01-09T05:07:43.717Z,16.33
2019-01-09T05:10:12.986Z,17.63
2019-01-09T05:12:42.304Z,13.47
2019-01-09T05:15:11.610Z,14.80
2019-01-09T05:17:40.842Z,13.80
2019-01-09T05:20:10.159Z,13.30
2019-01-09T05:22:39.542Z,14.97
2019-01-09T05:25:08.794Z,10.57
2019-01-09T05:27:38.114Z,11.80
2019-01-09T05:30:07.466Z,10.20
2019-01-09T05:32:36.888Z,9.87
2019-01-09T05:35:06.424Z,11.57
2019-01-09T05:37:35.729Z,9.97
2019-01-09T05:40:05.109Z,9.67
2019-01-09T05:42:34.394Z,16.50
2019-01-09T05:45:03.798Z,14.40
2019-01-09T05:47:33.050Z,13.43
2019-01-09T05:50:02.331Z,11.00
2019-01-09T05:52:31.654Z,10.30
2019-01-09T05:55:00.968Z,8.10
2019-01-09T05:57:30.249Z,9.10
2019-01-09T05:59:59.578Z,8.57
2019-01-09T06:02:28.989Z,7.80
2019-01-09T06:04:58.321Z,6.97
2019-01-09T06:07:27.613Z,7.67
2019-01-09T06:09:56.952Z,8.37
2019-01-09T06:12:26.389Z,8.67
2019-01-09T06:14:55.637Z,9.47
2019-01-09T06:17:24.961Z,13.93
2019-01-09T06:19:54.221Z,13.00
2019-01-09T06:22:23.473Z,10.57
2019-01-09T06:24:52.847Z,10.20
2019-01-09T06:27:22.097Z,9.90
2019-01-09T06:29:51.473Z,8.53
2019-01-09T06:32:20.777Z,8.90
2019-01-09T06:34:50.097Z,8.97
2019-01-09T06:37:27.107Z,7.60
2019-01-09T06:39:50.272Z,9.40
2019-01-09T06:42:19.592Z,8.13
2019-01-09T06:44:48.832Z,13.27
2019-01-09T06:47:18.144Z,14.17
2019-01-09T06:49:47.383Z,15.13
2019-01-09T06:52:16.680Z,15.30
2019-01-09T06:54:46.344Z,19.27
2019-01-09T06:57:15.584Z,19.93
2019-01-09T06:59:44.884Z,19.10
2019-01-09T07:02:14.200Z,22.70
2019-01-09T07:04:44.759Z,23.80
2019-01-09T07:07:14.163Z,27.53
2019-01-09T07:09:43.465Z,25.57
2019-01-09T07:12:12.747Z,26.93
2019-01-09T07:14:42.007Z,25.87
2019-01-09T07:17:11.367Z,26.43
2019-01-09T07:19:40.656Z,26.47
2019-01-09T07:22:09.967Z,31.40
2019-01-09T07:24:39.272Z,27.67
2019-01-09T07:27:08.539Z,29.47
2019-01-09T07:29:37.848Z,29.00
2019-01-09T07:32:07.211Z,24.63
2019-01-09T07:34:36.531Z,29.77
2019-01-09T07:37:05.832Z,26.47
2019-01-09T07:39:35.123Z,26.27
2019-01-09T07:42:04.515Z,27.20
2019-01-09T07:44:33.855Z,22.80
2019-01-09T07:47:03.231Z,24.43
2019-01-09T07:49:32.555Z,23.43
2019-01-09T07:52:01.899Z,23.67
2019-01-09T07:54:31.283Z,26.30
2019-01-09T07:57:00.651Z,22.07
2019-01-09T07:59:29.895Z,25.43
2019-01-09T08:02:00.039Z,27.93
2019-01-09T08:04:29.473Z,28.87
2019-01-09T08:06:58.751Z,25.70
2019-01-09T08:09:28.031Z,22.87
2019-01-09T08:11:57.327Z,23.80
2019-01-09T08:14:26.605Z,23.10
2019-01-09T08:16:56.057Z,21.10
2019-01-09T08:19:25.262Z,19.53
2019-01-09T08:21:54.583Z,18.10
2019-01-09T08:24:23.878Z,17.10
2019-01-09T08:26:53.703Z,18.73
2019-01-09T08:29:23.002Z,17.70
2019-01-09T08:31:52.315Z,18.07
2019-01-09T08:34:21.630Z,20.67
2019-01-09T08:36:50.963Z,16.67
2019-01-09T08:39:20.459Z,16.83
2019-01-09T08:41:49.884Z,18.23
2019-01-09T08:44:19.163Z,16.53
2019-01-09T08:46:48.491Z,17.50
2019-01-09T08:49:17.870Z,15.80
2019-01-09T08:51:47.214Z,17.00
2019-01-09T08:54:16.478Z,18.17
2019-01-09T08:56:45.782Z,19.33
2019-01-09T08:59:15.030Z,18.90
2019-01-09T09:01:44.302Z,17.87
2019-01-09T09:04:13.674Z,19.57
2019-01-09T09:06:42.925Z,20.23
2019-01-09T09:09:12.278Z,19.70
2019-01-09T09:11:41.534Z,21.50
2019-01-09T09:14:10.801Z,21.47
2019-01-09T09:16:40.485Z,23.97
2019-01-09T09:19:09.750Z,23.07
2019-01-09T09:21:39.062Z,27.20
2019-01-09T09:24:08.334Z,26.50
2019-01-09T09:26:37.597Z,27.27
2019-01-09T09:29:07.026Z,27.67
2019-01-09T09:31:36.365Z,28.63
2019-01-09T09:34:05.622Z,28.97
2019-01-09T09:36:34.969Z,28.50
2019-01-09T09:39:06.989Z,32.40
2019-01-09T09:41:36.301Z,27.67
2019-01-09T09:44:05.733Z,34.23
2019-01-09T09:46:35.111Z,34.07
2019-01-09T09:49:04.577Z,34.83
2019-01-09T09:51:33.930Z,34.80
2019-01-09T09:54:03.213Z,37.13
2019-01-09T09:56:32.601Z,32.43
2019-01-09T09:59:01.961Z,33.60
2019-01-09T10:01:31.209Z,36.20
2019-01-09T10:04:00.537Z,34.50
2019-01-09T10:06:29.822Z,43.90
2019-01-09T10:08:59.117Z,41.17
2019-01-09T10:11:28.497Z,44.67
2019-01-09T10:13:57.904Z,49.77
2019-01-09T10:16:27.161Z,50.73
2019-01-09T10:18:56.457Z,51.37
2019-01-09T10:21:25.804Z,58.87
2019-01-09T10:23:55.085Z,52.60
2019-01-09T10:26:24.364Z,54.43
2019-01-09T10:28:53.772Z,47.20
2019-01-09T10:31:23.113Z,49.00
2019-01-09T10:33:52.556Z,56.03
2019-01-09T10:36:21.876Z,50.50
2019-01-09T10:38:51.169Z,50.53
2019-01-09T10:41:20.504Z,50.70
2019-01-09T10:43:49.780Z,49.33
2019-01-09T10:46:19.108Z,51.47
2019-01-09T10:48:48.424Z,47.77
2019-01-09T10:51:17.728Z,45.03
2019-01-09T10:53:46.967Z,46.40
2019-01-09T10:56:16.384Z,44.97
2019-01-09T10:58:45.860Z,47.23
2019-01-09T11:01:15.136Z,48.80
2019-01-09T11:03:44.456Z,47.73
2019-01-09T11:06:14.592Z,52.90
2019-01-09T11:08:47.007Z,58.50
2019-01-09T11:11:15.051Z,60.47
2019-01-09T11:13:44.344Z,59.93
2019-01-09T11:16:13.684Z,65.77
2019-01-09T11:18:43.088Z,55.73
2019-01-09T11:21:12.425Z,55.13
2019-01-09T11:23:41.700Z,56.13
2019-01-09T11:26:11.015Z,56.93
2019-01-09T11:28:40.308Z,63.17
2019-01-09T11:31:09.683Z,60.73
2019-01-09T11:33:38.959Z,52.83
2019-01-09T11:36:08.355Z,64.03
2019-01-09T11:38:37.703Z,64.87
2019-01-09T11:41:07.090Z,62.33
2019-01-09T11:43:36.399Z,55.97
2019-01-09T11:46:05.775Z,68.80
2019-01-09T11:48:35.095Z,73.43
2019-01-09T11:51:04.367Z,65.00
2019-01-09T11:53:33.671Z,59.77
2019-01-09T11:56:02.943Z,63.63
2019-01-09T11:58:32.199Z,73.60
2019-01-09T12:01:01.575Z,73.47
2019-01-09T12:03:30.959Z,76.73
2019-01-09T12:06:00.320Z,78.83
2019-01-09T12:08:29.598Z,73.87
2019-01-09T12:10:59.067Z,80.57
2019-01-09T12:13:28.439Z,74.87
2019-01-09T12:15:57.795Z,86.57
2019-01-09T12:18:27.150Z,80.93
2019-01-09T12:20:56.426Z,80.83
2019-01-09T12:23:25.741Z,89.33
2019-01-09T12:25:55.007Z,77.93
2019-01-09T12:28:24.335Z,94.00
2019-01-09T12:30:53.767Z,83.20
2019-01-09T12:33:23.950Z,76.20
2019-01-09T12:35:53.319Z,77.70
2019-01-09T12:38:22.622Z,80.17
2019-01-09T12:40:51.906Z,70.60
2019-01-09T12:43:21.262Z,70.00
2019-01-09T12:45:50.542Z,74.23
2019-01-09T12:48:19.906Z,73.07
2019-01-09T12:50:49.182Z,67.67
2019-01-09T12:53:18.850Z,70.87
2019-01-09T12:55:48.146Z,74.97
2019-01-09T12:58:17.530Z,67.27
2019-01-09T13:00:46.923Z,69.33
2019-01-09T13:03:16.231Z,74.90
2019-01-09T13:05:45.558Z,81.03
2019-01-09T13:08:14.838Z,76.73
2019-01-09T13:10:44.214Z,71.17
2019-01-09T13:13:13.418Z,77.90
2019-01-09T13:15:42.714Z,69.77
2019-01-09T13:18:11.982Z,68.60
2019-01-09T13:20:41.310Z,84.47
2019-01-09T13:23:10.651Z,75.93
2019-01-09T13:25:40.070Z,80.33
2019-01-09T13:28:09.477Z,84.40
2019-01-09T13:30:38.797Z,75.83
2019-01-09T13:33:08.049Z,76.20
2019-01-09T13:35:37.350Z,79.83
2019-01-09T13:38:06.737Z,76.73
2019-01-09T13:40:36.261Z,82.10
2019-01-09T13:43:05.633Z,81.07
2019-01-09T13:45:34.993Z,78.60
2019-01-09T13:48:04.577Z,84.23
2019-01-09T13:50:33.869Z,80.90
2019-01-09T13:53:03.203Z,82.93
2019-01-09T13:55:32.509Z,76.33
2019-01-09T13:58:01.825Z,73.80
2019-01-09T14:00:31.185Z,74.23
2019-01-09T14:03:00.554Z,77.17
2019-01-09T14:05:29.960Z,75.63
2019-01-09T14:07:59.285Z,79.97
2019-01-09T14:10:28.586Z,75.77
2019-01-09T14:12:57.885Z,80.13
2019-01-09T14:15:27.166Z,75.50
2019-01-09T14:17:56.505Z,83.80
2019-01-09T14:20:25.845Z,82.20
2019-01-09T14:22:55.197Z,81.63
2019-01-09T14:25:24.532Z,83.77
2019-01-09T14:27:53.873Z,77.47
2019-01-09T14:30:28.252Z,83.03
2019-01-09T14:32:57.688Z,74.97
2019-01-09T14:35:27.037Z,87.43
2019-01-09T14:37:56.713Z,91.03
2019-01-09T14:40:25.988Z,85.67
2019-01-09T14:42:55.304Z,84.73
2019-01-09T14:45:24.644Z,84.57
2019-01-09T14:47:53.942Z,92.10
2019-01-09T14:50:24.517Z,74.00
2019-01-09T14:52:53.830Z,86.07
2019-01-09T14:55:23.128Z,82.17
2019-01-09T14:57:56.164Z,90.23
2019-01-09T15:00:27.410Z,83.90
2019-01-09T15:02:56.782Z,89.23
2019-01-09T15:05:25.958Z,81.90
2019-01-09T15:07:55.269Z,88.50
2019-01-09T15:10:26.830Z,84.10
2019-01-09T15:12:56.867Z,80.67
2019-01-09T15:15:26.246Z,83.93
2019-01-09T15:17:55.490Z,82.30
2019-01-09T15:20:24.826Z,79.87
2019-01-09T15:22:54.118Z,82.70
2019-01-09T15:25:23.486Z,91.93
2019-01-09T15:27:52.902Z,86.70
2019-01-09T15:30:24.930Z,97.87
2019-01-09T15:32:54.186Z,90.53
2019-01-09T15:35:23.602Z,94.50
2019-01-09T15:37:52.997Z,97.50
2019-01-09T15:40:24.391Z,88.90
2019-01-09T15:42:53.821Z,92.23
2019-01-09T15:45:23.236Z,88.40
2019-01-09T15:47:52.569Z,96.70
2019-01-09T15:50:22.482Z,100.50
2019-01-09T15:52:54.419Z,96.43
2019-01-09T15:55:23.813Z,96.87
2019-01-09T15:57:53.386Z,101.23
2019-01-09T16:00:28.358Z,86.87
2019-01-09T16:02:57.643Z,85.47
2019-01-09T16:05:26.999Z,101.67
2019-01-09T16:07:56.302Z,92.33
2019-01-09T16:10:25.570Z,93.73
2019-01-09T16:12:54.882Z,100.10
2019-01-09T16:15:24.142Z,100.90
2019-01-09T16:17:53.509Z,102.13
2019-01-09T16:20:22.870Z,100.60
2019-01-09T16:22:52.213Z,94.70
2019-01-09T16:25:21.604Z,84.70
2019-01-09T16:27:50.985Z,79.27
2019-01-09T16:30:44.008Z,77.57
2019-01-09T16:33:13.268Z,85.27
2019-01-09T16:35:42.624Z,69.83
2019-01-09T16:38:12.132Z,66.17
2019-01-09T16:40:41.469Z,63.53
2019-01-09T16:43:10.732Z,72.90
2019-01-09T16:45:40.108Z,66.70
2019-01-09T16:48:09.376Z,71.87
2019-01-09T16:50:38.670Z,63.97
2019-01-09T16:53:07.991Z,71.90
2019-01-09T16:55:37.275Z,70.20
2019-01-09T16:58:06.587Z,65.87
2019-01-09T17:00:36.119Z,76.63
2019-01-09T17:03:05.519Z,66.83
2019-01-09T17:05:35.192Z,75.53
2019-01-09T17:08:04.995Z,67.07
2019-01-09T17:10:34.275Z,64.97
2019-01-09T17:13:03.575Z,74.07
2019-01-09T17:15:32.943Z,73.23
2019-01-09T17:18:02.539Z,66.27
2019-01-09T17:20:31.825Z,71.10
2019-01-09T17:23:01.121Z,65.30
2019-01-09T17:25:30.414Z,71.80
2019-01-09T17:27:59.762Z,75.40
2019-01-09T17:30:29.457Z,82.73
2019-01-09T17:32:58.761Z,70.53
2019-01-09T17:35:28.010Z,74.57
2019-01-09T17:37:57.383Z,72.73
2019-01-09T17:40:26.858Z,71.43
2019-01-09T17:42:56.114Z,74.73
2019-01-09T17:45:25.546Z,70.90
2019-01-09T17:47:54.855Z,72.87
2019-01-09T17:50:26.905Z,70.30
2019-01-09T17:52:56.506Z,70.37
2019-01-09T17:55:25.765Z,70.07
2019-01-09T17:57:55.115Z,82.20
2019-01-09T18:00:26.830Z,67.43
2019-01-09T18:02:56.075Z,67.80
2019-01-09T18:05:25.369Z,82.60
2019-01-09T18:07:54.642Z,75.53
2019-01-09T18:10:23.960Z,66.50
2019-01-09T18:12:53.282Z,68.20
2019-01-09T18:15:23.705Z,76.00
2019-01-09T18:17:53.161Z,68.67
2019-01-09T18:20:22.510Z,70.33
2019-01-09T18:22:52.017Z,70.50
2019-01-09T18:25:23.199Z,73.40
2019-01-09T18:27:52.476Z,71.90
2019-01-09T18:30:41.517Z,71.17
2019-01-09T18:33:44.180Z,68.93
2019-01-09T18:36:32.733Z,69.23
2019-01-09T18:39:40.968Z,69.80
2019-01-09T18:42:55.233Z,69.03
2019-01-09T18:45:56.701Z,69.57
2019-01-09T18:49:07.660Z,77.80
2019-01-09T18:52:22.124Z,74.57
2019-01-09T18:54:51.480Z,72.83
2019-01-09T18:57:20.790Z,74.97
2019-01-09T18:59:50.069Z,74.87
2019-01-09T19:02:19.377Z,83.23
2019-01-09T19:04:49.005Z,81.90
2019-01-09T19:07:18.412Z,79.07
2019-01-09T19:09:47.712Z,81.00
2019-01-09T19:12:17.033Z,79.20
2019-01-09T19:14:46.308Z,85.40
2019-01-09T19:17:15.964Z,76.43
2019-01-09T19:19:45.332Z,76.17
2019-01-09T19:22:14.924Z,76.13
2019-01-09T19:24:44.180Z,80.93
2019-01-09T19:27:13.556Z,77.10
2019-01-09T19:29:42.934Z,86.07
2019-01-09T19:32:12.220Z,87.27
2019-01-09T19:34:41.508Z,87.83
2019-01-09T19:37:10.864Z,82.63
2019-01-09T19:39:40.199Z,79.53
2019-01-09T19:42:09.612Z,74.30
2019-01-09T19:44:38.860Z,84.13
2019-01-09T19:47:08.172Z,85.33
2019-01-09T19:49:37.468Z,84.03
2019-01-09T19:52:06.780Z,73.30
2019-01-09T19:54:36.091Z,80.87
2019-01-09T19:57:05.746Z,81.53
2019-01-09T19:59:35.001Z,75.27
2019-01-09T20:02:04.308Z,77.60
2019-01-09T20:04:33.779Z,79.83
2019-01-09T20:07:03.106Z,88.37
2019-01-09T20:09:32.435Z,78.40
2019-01-09T20:12:01.855Z,79.50
2019-01-09T20:14:31.160Z,92.53
2019-01-09T20:17:00.363Z,91.80
2019-01-09T20:19:29.764Z,80.53
2019-01-09T20:21:59.103Z,83.57
2019-01-09T20:24:28.382Z,81.73
2019-01-09T20:26:57.635Z,83.57
2019-01-09T20:29:26.919Z,91.93
2019-01-09T20:31:56.186Z,81.17
2019-01-09T20:34:25.490Z,79.57
2019-01-09T20:36:54.826Z,83.83
2019-01-09T20:39:24.100Z,84.47
2019-01-09T20:41:53.578Z,83.90
2019-01-09T20:44:22.947Z,88.33
2019-01-09T20:46:52.145Z,84.83
2019-01-09T20:49:21.531Z,89.60
2019-01-09T20:51:50.867Z,89.07
2019-01-09T20:54:20.262Z,83.50
2019-01-09T20:56:50.466Z,86.67
2019-01-09T20:59:19.750Z,94.37
2019-01-09T21:01:49.002Z,81.07
2019-01-09T21:04:18.266Z,84.50
2019-01-09T21:06:47.671Z,85.80
2019-01-09T21:09:16.934Z,82.73
2019-01-09T21:11:46.312Z,80.57
2019-01-09T21:14:15.704Z,87.40
2019-01-09T21:16:45.082Z,83.10
2019-01-09T21:19:14.366Z,89.10
2019-01-09T21:21:43.770Z,88.60
2019-01-09T21:24:13.066Z,99.77
2019-01-09T21:26:42.350Z,96.27
2019-01-09T21:29:11.738Z,97.77
2019-01-09T21:31:41.013Z,96.03
2019-01-09T21:34:10.365Z,109.67
2019-01-09T21:36:39.661Z,104.13
2019-01-09T21:39:10.298Z,95.40
2019-01-09T21:41:39.657Z,101.47
2019-01-09T21:44:15.858Z,92.50
2019-01-09T21:46:46.095Z,96.30
2019-01-09T21:49:10.853Z,93.43
2019-01-09T21:51:40.237Z,98.37
2019-01-09T21:54:09.573Z,98.50
2019-01-09T21:56:38.853Z,94.43
2019-01-09T21:59:08.173Z,101.60
2019-01-09T22:01:37.477Z,94.27
2019-01-09T22:04:06.762Z,91.50
2019-01-09T22:06:36.122Z,74.97
2019-01-09T22:09:07.785Z,84.07
2019-01-09T22:11:37.065Z,72.97
2019-01-09T22:14:06.390Z,76.97
2019-01-09T22:16:35.945Z,75.23
2019-01-09T22:19:11.974Z,80.50
2019-01-09T22:21:36.212Z,73.50
2019-01-09T22:24:05.785Z,73.87
2019-01-09T22:26:35.033Z,63.87
2019-01-09T22:29:04.397Z,65.07
2019-01-09T22:31:33.708Z,66.63
2019-01-09T22:34:03.057Z,66.97
2019-01-09T22:36:32.349Z,71.27
2019-01-09T22:39:01.591Z,61.50
2019-01-09T22:41:30.913Z,64.50
2019-01-09T22:44:00.167Z,62.40
2019-01-09T22:46:30.926Z,60.10
2019-01-09T22:49:00.336Z,62.33
2019-01-09T22:51:29.596Z,64.67
2019-01-09T22:53:59.666Z,59.23
2019-01-09T22:56:28.908Z,62.57
2019-01-09T22:58:58.260Z,60.97
2019-01-09T23:01:29.555Z,71.73
2019-01-09T23:03:58.936Z,70.73
2019-01-09T23:06:28.215Z,63.37
2019-01-09T23:08:57.503Z,63.70
2019-01-09T23:11:26.832Z,69.17
2019-01-09T23:13:56.212Z,67.50
2019-01-09T23:16:25.532Z,63.03
2019-01-09T23:18:54.880Z,63.97
2019-01-09T23:21:24.264Z,66.33
2019-01-09T23:23:53.623Z,58.60
2019-01-09T23:26:22.861Z,64.73
2019-01-09T23:28:52.216Z,65.30
2019-01-09T23:31:21.467Z,62.77
2019-01-09T23:33:50.840Z,69.77
2019-01-09T23:36:20.119Z,63.87
2019-01-09T23:38:49.455Z,67.73
2019-01-09T23:41:18.755Z,64.43
2019-01-09T23:43:48.075Z,62.60
2019-01-09T23:46:17.385Z,65.40
2019-01-09T23:48:46.699Z,63.57
2019-01-09T23:51:16.363Z,66.23
2019-01-09T23:53:45.663Z,65.97
2019-01-09T23:56:14.987Z,61.33
2019-01-09T23:58:44.263Z,60.77
